Time;durP1;ratioP1;P1;durP2;ratioP2;P2;SDS_P1;SDS_P2;PMS_P1;PMS_P2;Temp;Humidity;BMP_temperature;BMP_pressure;BME280_temperature;BME280_humidity;BME280_pressure;Samples;Min_cycle;Max_cycle;Signal;HPM_P1;HPM_P2
2022/07/01 00:00:49;;;;;;;3.42;1.95;;;15.00;99.90;;;;;;5038275;28;20098;-71
2022/07/01 00:03:14;;;;;;;7.47;2.53;;;15.00;99.90;;;;;;5037583;28;20041;-70
2022/07/01 00:05:40;;;;;;;3.88;2.33;;;14.90;99.90;;;;;;5021717;28;20033;-71
2022/07/01 00:08:06;;;;;;;4.00;2.20;;;14.90;99.90;;;;;;5036503;28;20110;-71
2022/07/01 00:10:32;;;;;;;3.47;2.42;;;14.80;99.90;;;;;;5039754;28;20489;-69
2022/07/01 00:12:57;;;;;;;4.68;3.03;;;14.80;99.90;;;;;;5036597;28;20512;-71
2022/07/01 00:15:23;;;;;;;7.53;3.47;;;14.80;99.90;;;;;;5040090;28;20127;-72
2022/07/01 00:17:49;;;;;;;6.57;4.05;;;14.90;99.90;;;;;;5038313;28;20030;-71
2022/07/01 00:20:15;;;;;;;9.88;3.72;;;14.80;99.90;;;;;;5037920;28;20043;-71
2022/07/01 00:22:41;;;;;;;6.70;3.72;;;14.90;99.90;;;;;;5019608;28;20037;-71
2022/07/01 00:25:08;;;;;;;8.50;4.63;;;14.90;99.90;;;;;;5040114;28;20029;-68
2022/07/01 00:27:37;;;;;;;7.88;4.75;;;14.90;99.90;;;;;;5040160;28;20044;-71
2022/07/01 00:30:03;;;;;;;8.68;5.20;;;14.90;99.90;;;;;;5039934;28;20496;-69
2022/07/01 00:32:29;;;;;;;7.88;4.75;;;14.90;99.90;;;;;;5035951;28;20033;-73
2022/07/01 00:34:54;;;;;;;12.52;6.55;;;15.00;99.90;;;;;;5041656;28;20056;-71
2022/07/01 00:37:20;;;;;;;11.73;6.25;;;14.90;99.90;;;;;;5041994;28;20031;-71
2022/07/01 00:39:45;;;;;;;16.63;6.63;;;14.90;99.90;;;;;;5042283;28;20551;-72
2022/07/01 00:42:11;;;;;;;12.45;6.63;;;14.90;99.90;;;;;;5036109;28;20082;-70
2022/07/01 00:44:37;;;;;;;13.60;7.38;;;14.90;99.90;;;;;;5040261;28;20065;-69
2022/07/01 00:47:11;;;;;;;21.48;8.63;;;14.90;99.90;;;;;;5025482;28;20024;-69
2022/07/01 00:49:38;;;;;;;19.00;8.18;;;14.90;99.90;;;;;;5019690;28;20037;-71
2022/07/01 00:52:05;;;;;;;16.90;8.38;;;14.80;99.90;;;;;;5043734;28;20037;-68
2022/07/01 00:54:35;;;;;;;18.13;8.73;;;14.80;99.90;;;;;;5036629;28;20045;-72
2022/07/01 00:57:08;;;;;;;17.00;8.95;;;14.80;99.90;;;;;;5045506;28;20040;-72
2022/07/01 00:59:35;;;;;;;15.07;8.68;;;14.80;99.90;;;;;;5037764;28;20044;-70
2022/07/01 01:02:00;;;;;;;17.40;9.18;;;14.80;99.90;;;;;;5048518;28;20068;-71
2022/07/01 01:04:26;;;;;;;15.40;8.75;;;14.70;99.90;;;;;;5025451;28;20057;-70
2022/07/01 01:06:52;;;;;;;14.38;8.60;;;14.80;99.90;;;;;;5042765;28;20037;-72
2022/07/01 01:09:17;;;;;;;17.25;8.35;;;14.70;99.90;;;;;;5043355;28;20041;-72
2022/07/01 01:11:43;;;;;;;16.33;8.40;;;14.70;99.90;;;;;;5027640;28;20037;-72
2022/07/01 01:14:08;;;;;;;15.77;9.05;;;14.70;99.90;;;;;;5046562;28;20045;-68
2022/07/01 01:16:35;;;;;;;15.00;9.02;;;14.60;99.90;;;;;;5044682;28;20054;-70
2022/07/01 01:19:07;;;;;;;14.63;8.48;;;14.60;99.90;;;;;;5043677;28;20512;-72
2022/07/01 01:21:34;;;;;;;13.65;8.20;;;14.60;99.90;;;;;;5019974;28;20033;-72
2022/07/01 01:23:59;;;;;;;20.60;10.05;;;14.50;99.90;;;;;;5044382;28;20552;-72
2022/07/01 01:26:25;;;;;;;15.02;8.55;;;14.40;99.90;;;;;;5044752;28;20056;-71
2022/07/01 01:28:52;;;;;;;17.45;8.75;;;14.40;99.90;;;;;;5040747;28;20039;-69
2022/07/01 01:31:28;;;;;;;17.58;9.75;;;14.40;99.90;;;;;;5041644;28;20037;-72
2022/07/01 01:33:54;;;;;;;15.48;8.65;;;14.40;99.90;;;;;;5020111;28;20375;-70
2022/07/01 01:36:19;;;;;;;16.83;9.50;;;14.40;99.90;;;;;;5023776;28;20041;-70
2022/07/01 01:38:45;;;;;;;15.18;8.90;;;14.30;99.90;;;;;;5023545;28;20519;-71
2022/07/01 01:41:11;;;;;;;19.02;8.65;;;14.30;99.90;;;;;;5038663;28;20045;-72
2022/07/01 01:43:37;;;;;;;15.95;8.90;;;14.30;99.90;;;;;;5017258;28;20153;-71
2022/07/01 01:46:03;;;;;;;16.33;8.00;;;14.30;99.90;;;;;;5023833;28;20041;-72
2022/07/01 01:48:30;;;;;;;17.88;8.88;;;14.20;99.90;;;;;;5042839;28;20091;-72
2022/07/01 01:50:55;;;;;;;19.48;9.07;;;14.20;99.90;;;;;;5039144;28;20083;-70
2022/07/01 01:53:21;;;;;;;16.75;8.88;;;14.20;99.90;;;;;;5041321;28;20832;-70
2022/07/01 01:55:46;;;;;;;16.60;8.77;;;14.10;99.90;;;;;;5040841;28;20040;-72
2022/07/01 01:58:12;;;;;;;18.27;9.43;;;14.10;99.90;;;;;;5039892;28;20049;-72
2022/07/01 02:00:38;;;;;;;17.13;9.13;;;14.10;99.90;;;;;;5042260;28;20033;-69
2022/07/01 02:03:04;;;;;;;15.60;9.02;;;14.00;99.90;;;;;;5039277;28;20032;-71
2022/07/01 02:05:30;;;;;;;14.30;8.60;;;14.00;99.90;;;;;;5042183;28;20115;-72
2022/07/01 02:07:56;;;;;;;18.05;9.25;;;14.00;99.90;;;;;;5017306;28;20083;-70
2022/07/01 02:10:21;;;;;;;19.38;8.68;;;14.00;99.90;;;;;;5040312;28;20436;-69
2022/07/01 02:12:47;;;;;;;16.35;8.73;;;14.00;99.90;;;;;;5021996;28;20072;-72
2022/07/01 02:15:13;;;;;;;15.82;8.75;;;14.00;99.90;;;;;;5041779;28;20041;-71
2022/07/01 02:17:38;;;;;;;20.30;8.88;;;13.90;99.90;;;;;;5022783;28;20121;-71
2022/07/01 02:20:04;;;;;;;15.57;8.57;;;13.90;99.90;;;;;;5024291;28;20037;-70
2022/07/01 02:22:30;;;;;;;15.73;8.63;;;13.90;99.90;;;;;;5041727;28;20529;-72
2022/07/01 02:24:56;;;;;;;17.70;8.35;;;13.90;99.90;;;;;;5041486;28;20041;-69
2022/07/01 02:27:21;;;;;;;19.17;9.50;;;13.90;99.90;;;;;;5041896;28;20029;-68
2022/07/01 02:29:47;;;;;;;16.48;8.70;;;13.90;99.90;;;;;;5039469;28;20500;-71
2022/07/01 02:32:12;;;;;;;16.30;8.05;;;13.90;99.90;;;;;;5039261;28;20128;-71
2022/07/01 02:34:38;;;;;;;18.52;8.23;;;13.80;99.90;;;;;;5022367;28;20041;-70
2022/07/01 02:37:04;;;;;;;17.88;8.60;;;13.80;99.90;;;;;;5048771;28;20091;-72
2022/07/01 02:39:29;;;;;;;17.50;7.97;;;13.80;99.90;;;;;;5051892;28;20033;-71
2022/07/01 02:44:42;;;;;;;16.25;8.57;;;13.80;99.90;;;;;;5044650;28;20048;-71
2022/07/01 02:47:08;;;;;;;16.30;8.00;;;13.70;99.90;;;;;;5042707;28;20470;-70
2022/07/01 02:49:33;;;;;;;17.77;7.72;;;13.70;99.90;;;;;;5042762;28;20041;-71
2022/07/01 02:51:59;;;;;;;15.20;8.23;;;13.70;99.90;;;;;;5038269;28;20037;-70
2022/07/01 02:54:24;;;;;;;15.45;7.57;;;13.70;99.90;;;;;;5040808;28;20041;-70
2022/07/01 02:56:50;;;;;;;14.15;6.97;;;13.70;99.90;;;;;;5037196;28;20029;-70
2022/07/01 02:59:16;;;;;;;18.00;7.38;;;13.70;99.90;;;;;;5040199;28;20050;-70
2022/07/01 03:01:41;;;;;;;16.05;8.05;;;13.70;99.90;;;;;;5039837;28;20033;-68
2022/07/01 03:04:07;;;;;;;18.23;7.35;;;13.70;99.90;;;;;;5039036;28;21939;-71
2022/07/01 03:06:32;;;;;;;13.05;7.05;;;13.70;99.90;;;;;;5038922;28;20507;-71
2022/07/01 03:08:58;;;;;;;18.02;7.60;;;13.70;99.90;;;;;;5037813;28;20033;-70
2022/07/01 03:11:23;;;;;;;20.60;7.95;;;13.70;99.90;;;;;;5041307;28;20024;-68
2022/07/01 03:13:49;;;;;;;11.52;7.00;;;13.70;99.90;;;;;;5037319;28;20041;-71
2022/07/01 03:16:15;;;;;;;12.82;7.55;;;13.70;99.90;;;;;;5023147;28;20401;-71
2022/07/01 03:18:40;;;;;;;13.30;6.95;;;13.70;99.90;;;;;;5039622;28;20109;-70
2022/07/01 03:21:06;;;;;;;12.30;7.40;;;13.70;99.90;;;;;;5021239;28;20044;-72
2022/07/01 03:23:32;;;;;;;13.23;7.38;;;13.70;99.90;;;;;;5019702;28;20460;-71
2022/07/01 03:25:57;;;;;;;17.25;6.75;;;13.70;99.90;;;;;;5040083;28;20064;-68
2022/07/01 03:28:23;;;;;;;15.50;7.28;;;13.60;99.90;;;;;;5040537;28;20065;-71
2022/07/01 03:30:48;;;;;;;15.02;7.75;;;13.70;99.90;;;;;;5019813;28;20025;-69
2022/07/01 03:33:14;;;;;;;14.60;7.03;;;13.70;99.90;;;;;;5021118;28;20025;-70
2022/07/01 03:35:40;;;;;;;16.67;7.25;;;13.70;99.90;;;;;;5038736;28;20044;-70
2022/07/01 03:38:07;;;;;;;16.17;7.38;;;13.70;99.90;;;;;;5038583;28;20049;-72
2022/07/01 03:40:33;;;;;;;15.18;7.57;;;13.70;99.90;;;;;;5038857;28;20029;-71
2022/07/01 03:42:59;;;;;;;16.60;7.65;;;13.70;99.90;;;;;;5018245;28;20084;-71
2022/07/01 03:45:25;;;;;;;14.85;7.32;;;13.70;99.90;;;;;;5040013;28;20055;-71
2022/07/01 03:47:51;;;;;;;14.02;7.43;;;13.70;99.90;;;;;;5037105;28;20295;-70
2022/07/01 03:50:17;;;;;;;19.73;7.43;;;13.70;99.90;;;;;;5039625;28;20112;-69
2022/07/01 03:52:43;;;;;;;14.50;7.20;;;13.70;99.90;;;;;;5037831;28;20051;-71
2022/07/01 03:55:14;;;;;;;15.82;6.93;;;13.70;99.90;;;;;;5038501;28;20664;-71
2022/07/01 03:57:40;;;;;;;16.23;7.10;;;13.70;99.90;;;;;;5038847;28;20033;-72
2022/07/01 04:00:09;;;;;;;16.48;6.88;;;13.70;99.90;;;;;;5023699;28;20116;-70
2022/07/01 04:02:34;;;;;;;14.65;7.45;;;13.70;99.90;;;;;;5045077;28;20124;-71
2022/07/01 04:05:00;;;;;;;16.50;7.93;;;13.70;99.90;;;;;;5026395;28;20124;-72
2022/07/01 04:07:26;;;;;;;16.27;7.85;;;13.70;99.90;;;;;;5023025;28;20033;-71
2022/07/01 04:09:52;;;;;;;18.20;8.20;;;13.70;99.90;;;;;;5015126;28;20029;-71
2022/07/01 04:12:18;;;;;;;16.10;7.95;;;13.70;99.90;;;;;;5034834;28;20040;-70
2022/07/01 04:14:45;;;;;;;15.77;7.55;;;13.70;99.90;;;;;;5040152;28;20094;-69
2022/07/01 04:17:11;;;;;;;15.20;8.57;;;13.70;99.90;;;;;;5038113;28;20055;-70
2022/07/01 04:19:37;;;;;;;14.50;7.82;;;13.80;99.90;;;;;;5025142;28;20045;-71
2022/07/01 04:24:47;;;;;;;16.02;8.00;;;13.80;99.90;;;;;;5040030;28;20044;-72
2022/07/01 04:27:13;;;;;;;17.85;7.13;;;13.80;99.90;;;;;;5038384;28;20644;-68
2022/07/01 04:29:39;;;;;;;17.90;7.72;;;13.80;99.90;;;;;;5017444;28;20041;-71
2022/07/01 04:32:05;;;;;;;15.73;7.20;;;13.90;99.90;;;;;;5022202;28;20026;-71
2022/07/01 04:34:31;;;;;;;16.35;8.13;;;13.80;99.90;;;;;;5037573;28;20041;-71
2022/07/01 04:36:56;;;;;;;17.65;7.20;;;13.90;99.90;;;;;;5036615;28;20040;-72
2022/07/01 04:39:22;;;;;;;16.33;7.88;;;13.90;99.90;;;;;;5021698;28;20041;-71
2022/07/01 04:42:00;;;;;;;16.63;8.05;;;13.90;99.90;;;;;;5019170;28;20033;-71
2022/07/01 04:44:27;;;;;;;19.08;8.50;;;13.90;99.90;;;;;;5036425;28;20029;-72
2022/07/01 04:46:52;;;;;;;12.85;6.82;;;13.90;99.90;;;;;;5039510;28;20049;-72
2022/07/01 04:49:18;;;;;;;12.65;7.22;;;13.90;99.90;;;;;;5036368;28;20685;-70
2022/07/01 04:51:46;;;;;;;13.25;6.95;;;13.90;99.90;;;;;;5039710;28;20442;-68
2022/07/01 04:54:12;;;;;;;12.65;6.63;;;14.00;99.90;;;;;;5017913;28;20038;-71
2022/07/01 04:56:38;;;;;;;14.52;7.28;;;14.00;99.90;;;;;;5038656;28;20517;-71
2022/07/01 04:59:04;;;;;;;15.68;7.88;;;14.00;99.90;;;;;;5037163;28;20056;-72
2022/07/01 05:01:30;;;;;;;16.10;7.15;;;14.00;99.90;;;;;;5019956;28;20037;-69
2022/07/01 05:03:56;;;;;;;14.85;7.57;;;14.20;99.90;;;;;;5038341;28;20029;-72
2022/07/01 05:06:21;;;;;;;13.35;5.85;;;14.20;99.90;;;;;;5036434;28;20096;-71
2022/07/01 05:08:47;;;;;;;14.43;6.65;;;14.30;99.90;;;;;;5040139;28;20040;-71
2022/07/01 05:11:13;;;;;;;15.30;6.07;;;14.30;99.90;;;;;;5036186;28;20029;-71
2022/07/01 05:13:38;;;;;;;14.13;6.40;;;14.40;99.90;;;;;;5038723;28;20110;-72
2022/07/01 05:16:04;;;;;;;9.98;5.88;;;14.40;99.90;;;;;;5037895;28;20489;-72
2022/07/01 05:23:59;;;;;;;14.45;5.10;;;14.60;99.90;;;;;;5040534;28;20028;-69
2022/07/01 05:26:25;;;;;;;13.68;5.55;;;14.70;99.90;;;;;;5034845;28;20119;-72
2022/07/01 05:28:52;;;;;;;9.88;4.07;;;14.70;99.90;;;;;;5050511;28;20034;-71
2022/07/01 05:31:18;;;;;;;9.77;4.00;;;14.80;99.90;;;;;;5028926;28;20132;-71
2022/07/01 05:33:44;;;;;;;9.18;3.90;;;14.70;99.90;;;;;;5037543;28;20120;-70
2022/07/01 05:36:10;;;;;;;11.52;3.70;;;14.80;99.90;;;;;;5036219;28;20104;-72
2022/07/01 05:38:36;;;;;;;12.50;3.60;;;14.80;99.90;;;;;;5039341;28;20033;-71
2022/07/01 05:41:01;;;;;;;13.68;4.07;;;14.80;99.90;;;;;;5040371;28;20032;-67
2022/07/01 05:43:27;;;;;;;6.88;3.45;;;14.80;99.90;;;;;;5040837;28;20679;-72
2022/07/01 05:45:52;;;;;;;8.68;3.70;;;14.80;99.90;;;;;;5038990;28;20034;-70
2022/07/01 05:48:18;;;;;;;10.43;3.88;;;14.80;99.90;;;;;;5042631;28;20417;-71
2022/07/01 05:50:44;;;;;;;8.30;3.28;;;14.80;99.90;;;;;;5039764;28;20033;-71
2022/07/01 05:53:09;;;;;;;10.48;3.25;;;14.90;99.90;;;;;;5041583;28;20049;-70
2022/07/01 05:55:35;;;;;;;5.50;2.85;;;14.80;99.90;;;;;;5039018;28;20049;-73
2022/07/01 05:58:01;;;;;;;9.80;3.40;;;14.80;99.90;;;;;;5042456;28;20441;-68
2022/07/01 06:00:27;;;;;;;7.20;3.40;;;14.90;99.90;;;;;;5040919;28;20120;-68
2022/07/01 06:02:53;;;;;;;10.43;3.08;;;15.10;99.90;;;;;;5039858;28;20056;-73
2022/07/01 06:05:19;;;;;;;9.82;3.05;;;15.20;99.90;;;;;;5044083;28;20084;-70
2022/07/01 06:07:45;;;;;;;11.88;3.10;;;15.30;99.90;;;;;;5030855;28;20094;-72
2022/07/01 06:10:11;;;;;;;8.00;2.80;;;15.40;99.90;;;;;;5024482;28;20149;-69
2022/07/01 06:12:37;;;;;;;10.30;3.10;;;15.40;99.90;;;;;;5041897;28;20405;-73
2022/07/01 06:15:03;;;;;;;6.32;2.33;;;15.40;99.90;;;;;;5021375;28;20863;-71
2022/07/01 06:17:29;;;;;;;13.93;3.15;;;15.50;99.90;;;;;;5043624;28;20382;-73
2022/07/01 06:19:54;;;;;;;10.10;3.70;;;15.60;99.90;;;;;;5023506;28;20026;-72
2022/07/01 06:22:20;;;;;;;8.30;2.28;;;15.70;99.90;;;;;;5033640;28;20029;-69
2022/07/01 06:24:49;;;;;;;11.27;2.25;;;15.90;99.90;;;;;;5038692;28;20044;-71
2022/07/01 06:27:14;;;;;;;6.38;2.25;;;16.30;99.90;;;;;;5042709;28;20036;-70
2022/07/01 06:29:40;;;;;;;8.25;2.47;;;16.50;99.90;;;;;;5040835;28;20041;-72
2022/07/01 06:32:07;;;;;;;5.82;2.47;;;16.90;99.90;;;;;;5032689;28;20031;-71
2022/07/01 06:34:33;;;;;;;6.90;2.40;;;17.10;99.90;;;;;;5035184;28;20684;-70
2022/07/01 06:37:03;;;;;;;5.47;2.00;;;17.10;99.90;;;;;;5016388;28;20036;-72
2022/07/01 06:39:29;;;;;;;9.45;2.00;;;17.20;99.90;;;;;;5033496;28;20590;-72
2022/07/01 06:41:56;;;;;;;5.05;1.88;;;17.20;99.90;;;;;;5039479;28;20440;-70
2022/07/01 06:44:21;;;;;;;4.72;1.58;;;17.30;99.90;;;;;;5031990;28;20095;-69
2022/07/01 06:46:47;;;;;;;6.40;1.98;;;17.50;99.90;;;;;;5038650;28;20041;-69
2022/07/01 06:49:13;;;;;;;11.32;2.30;;;17.70;99.90;;;;;;5020236;28;20037;-72
2022/07/01 06:51:39;;;;;;;13.82;1.75;;;17.80;99.90;;;;;;5050353;28;20036;-71
2022/07/01 06:54:04;;;;;;;7.40;1.80;;;17.90;99.90;;;;;;5033663;28;20076;-72
2022/07/01 06:56:30;;;;;;;9.40;2.10;;;18.00;99.90;;;;;;5045190;28;20060;-72
2022/07/01 06:58:56;;;;;;;6.30;1.90;;;18.00;99.90;;;;;;5038990;28;20087;-74
2022/07/01 07:01:22;;;;;;;9.02;1.80;;;18.10;99.90;;;;;;5038137;28;20033;-71
2022/07/01 07:03:47;;;;;;;7.95;1.45;;;18.20;99.90;;;;;;5039226;28;20033;-71
2022/07/01 07:06:13;;;;;;;4.60;1.88;;;18.50;99.90;;;;;;5012848;28;20401;-73
2022/07/01 07:08:38;;;;;;;6.45;1.48;;;19.20;99.90;;;;;;5034101;28;20029;-73
2022/07/01 07:11:04;;;;;;;7.80;1.67;;;19.90;99.90;;;;;;5028447;28;20033;-73
2022/07/01 07:13:30;;;;;;;7.05;1.67;;;20.50;99.90;;;;;;5006554;28;20394;-73
2022/07/01 07:15:56;;;;;;;2.22;1.05;;;20.70;99.90;;;;;;5026561;28;20022;-73
2022/07/01 07:18:22;;;;;;;4.82;1.85;;;20.90;99.90;;;;;;5033888;28;20033;-73
2022/07/01 07:20:48;;;;;;;3.45;0.95;;;20.70;99.90;;;;;;5007603;28;20040;-73
2022/07/01 07:23:14;;;;;;;7.28;1.70;;;20.60;99.90;;;;;;5011254;28;20441;-73
2022/07/01 07:25:39;;;;;;;7.97;1.77;;;20.80;99.90;;;;;;5028993;28;20087;-73
2022/07/01 07:28:05;;;;;;;14.70;1.25;;;21.20;99.90;;;;;;5027450;28;20546;-72
2022/07/01 07:30:31;;;;;;;3.78;0.88;;;21.80;99.90;;;;;;5025961;28;20108;-73
2022/07/01 07:32:56;;;;;;;4.07;1.10;;;22.50;99.90;;;;;;5025866;28;20045;-74
2022/07/01 07:35:22;;;;;;;5.72;1.30;;;23.10;99.90;;;;;;5029015;28;20061;-74
2022/07/01 07:37:47;;;;;;;4.00;1.33;;;23.70;99.90;;;;;;5007919;28;20091;-74
2022/07/01 07:40:18;;;;;;;4.90;1.52;;;24.90;99.90;;;;;;5007179;28;20132;-72
2022/07/01 07:42:44;;;;;;;11.00;2.20;;;25.40;99.90;;;;;;5007537;28;20048;-74
2022/07/01 07:45:11;;;;;;;5.10;1.35;;;25.00;99.90;;;;;;5024788;28;20581;-73
2022/07/01 07:47:37;;;;;;;4.97;1.13;;;24.50;99.90;;;;;;5008646;28;20034;-73
2022/07/01 07:50:04;;;;;;;6.70;0.93;;;24.20;99.90;;;;;;5029076;28;20033;-71
2022/07/01 07:52:30;;;;;;;6.32;0.63;;;23.90;99.90;;;;;;5025203;28;20122;-72
2022/07/01 07:54:56;;;;;;;8.25;1.23;;;23.90;99.90;;;;;;5030481;28;20046;-72
2022/07/01 07:57:21;;;;;;;5.22;1.08;;;24.10;99.90;;;;;;5029125;28;20032;-73
2022/07/01 07:59:47;;;;;;;5.03;0.68;;;24.90;99.90;;;;;;5032431;28;20032;-73
2022/07/01 08:02:13;;;;;;;5.88;0.90;;;25.50;99.20;;;;;;5011423;28;20033;-73
2022/07/01 08:04:39;;;;;;;4.65;1.30;;;25.90;99.10;;;;;;5028240;28;20156;-72
2022/07/01 08:07:04;;;;;;;4.45;0.98;;;26.30;97.90;;;;;;5007785;28;20246;-72
2022/07/01 08:09:34;;;;;;;5.43;1.20;;;26.00;97.30;;;;;;5024181;28;20041;-74
2022/07/01 08:12:00;;;;;;;;;;;25.40;97.00;;;;;;5008472;28;20064;-74
2022/07/01 08:14:25;;;;;;;3.40;1.17;;;25.10;97.10;;;;;;5024108;28;19923;-72
2022/07/01 08:16:51;;;;;;;8.98;1.50;;;24.60;99.00;;;;;;5011291;28;20132;-73
2022/07/01 08:19:17;;;;;;;7.43;1.10;;;24.50;98.50;;;;;;5027171;28;20025;-71
2022/07/01 08:21:42;;;;;;;4.18;0.82;;;23.90;98.50;;;;;;5008484;28;20095;-73
2022/07/01 08:24:08;;;;;;;8.38;0.88;;;23.20;99.70;;;;;;5028136;28;20129;-73
2022/07/01 08:26:34;;;;;;;3.53;0.68;;;22.70;99.90;;;;;;5027467;28;20042;-77
2022/07/01 08:28:59;;;;;;;2.85;0.50;;;22.60;99.90;;;;;;5007603;28;20109;-72
2022/07/01 08:31:25;;;;;;;2.40;0.60;;;22.50;99.90;;;;;;5024937;28;20382;-71
2022/07/01 08:33:50;;;;;;;3.15;0.82;;;22.40;99.90;;;;;;5007110;28;20042;-72
2022/07/01 08:36:16;;;;;;;4.28;0.82;;;22.30;99.90;;;;;;5024659;28;20025;-72
2022/07/01 08:38:41;;;;;;;1.75;0.40;;;22.30;99.90;;;;;;5028518;28;20044;-72
2022/07/01 08:41:07;;;;;;;3.53;0.68;;;22.60;99.90;;;;;;5024812;28;20041;-75
2022/07/01 08:43:33;;;;;;;5.53;0.90;;;22.40;99.90;;;;;;5024441;28;20037;-74
2022/07/01 08:46:01;;;;;;;2.80;0.68;;;22.10;99.90;;;;;;5024682;28;20034;-72
2022/07/01 08:48:28;;;;;;;2.30;0.60;;;21.70;99.90;;;;;;5006859;28;20125;-72
2022/07/01 08:50:54;;;;;;;3.90;0.70;;;21.30;99.90;;;;;;5027213;28;20037;-72
2022/07/01 08:53:20;;;;;;;2.15;0.40;;;21.00;99.90;;;;;;5023844;28;20127;-73
2022/07/01 08:58:30;;;;;;;5.03;0.60;;;21.40;99.90;;;;;;5030519;28;20048;-73
2022/07/01 09:01:22;;;;;;;5.43;1.05;;;21.70;99.90;;;;;;5030148;28;20038;-72
2022/07/01 09:03:52;;;;;;;1.65;0.68;;;22.00;99.90;;;;;;5026329;28;20650;-73
2022/07/01 09:06:20;;;;;;;2.47;0.43;;;22.10;99.90;;;;;;5010774;28;20029;-73
2022/07/01 09:08:46;;;;;;;5.20;1.08;;;22.30;99.90;;;;;;5010477;28;20112;-73
2022/07/01 09:11:17;;;;;;;4.20;0.90;;;22.60;99.90;;;;;;5027970;28;20034;-70
2022/07/01 09:13:43;;;;;;;3.63;0.60;;;22.90;99.90;;;;;;5029315;28;20053;-73
2022/07/01 09:16:13;;;;;;;10.77;0.65;;;22.70;99.90;;;;;;5028779;28;20140;-73
2022/07/01 09:18:39;;;;;;;3.65;0.73;;;22.60;99.80;;;;;;5031739;28;20401;-74
2022/07/01 09:21:13;;;;;;;5.10;0.65;;;22.60;99.70;;;;;;5026680;28;20026;-73
2022/07/01 09:23:39;;;;;;;2.97;0.38;;;22.70;98.70;;;;;;5010133;28;20089;-72
2022/07/01 09:26:05;;;;;;;2.90;0.40;;;22.70;98.90;;;;;;5028881;28;20041;-74
2022/07/01 09:28:30;;;;;;;1.50;0.40;;;22.60;98.70;;;;;;5029390;28;20401;-73
2022/07/01 09:30:57;;;;;;;3.30;0.35;;;22.70;97.80;;;;;;5013985;28;20449;-73
2022/07/01 09:33:25;;;;;;;2.63;0.40;;;22.80;97.60;;;;;;5029610;28;20033;-71
2022/07/01 09:35:52;;;;;;;3.88;0.13;;;22.80;96.40;;;;;;5012359;28;20482;-74
2022/07/01 09:38:20;;;;;;;2.92;0.40;;;22.80;96.40;;;;;;5011211;28;20025;-73
2022/07/01 09:40:56;;;;;;;3.88;0.40;;;22.70;97.20;;;;;;5013373;28;20030;-71
2022/07/01 09:43:26;;;;;;;5.47;0.50;;;22.80;97.30;;;;;;5011222;28;20044;-71
2022/07/01 09:45:55;;;;;;;1.85;0.30;;;22.90;95.40;;;;;;5014596;28;20509;-71
2022/07/01 09:48:27;;;;;;;2.13;0.28;;;22.80;95.70;;;;;;5030137;28;20120;-74
2022/07/01 09:50:53;;;;;;;1.15;0.20;;;22.70;95.80;;;;;;5009860;28;20041;-72
2022/07/01 09:53:19;;;;;;;2.97;0.10;;;22.70;94.80;;;;;;5018360;28;20037;-72
2022/07/01 09:55:45;;;;;;;1.63;0.20;;;22.90;96.30;;;;;;5020746;28;20508;-73
2022/07/01 09:58:10;;;;;;;1.23;0.25;;;22.90;96.00;;;;;;5019816;28;20035;-73
2022/07/01 10:00:37;;;;;;;2.92;0.52;;;23.00;94.00;;;;;;5019389;28;20029;-74
2022/07/01 10:03:05;;;;;;;2.80;0.30;;;23.00;95.30;;;;;;5019230;28;20064;-72
2022/07/01 10:05:37;;;;;;;4.45;0.75;;;23.10;95.70;;;;;;5037261;28;20033;-74
2022/07/01 10:08:28;;;;;;;1.83;0.50;;;23.10;95.60;;;;;;5005988;28;20037;-73
2022/07/01 10:11:24;;;;;;;2.60;0.30;;;23.20;95.00;;;;;;5030317;28;20060;-70
2022/07/01 10:13:51;;;;;;;15.80;0.60;;;23.30;95.10;;;;;;5011381;28;20041;-72
2022/07/01 10:16:17;;;;;;;2.50;0.38;;;23.10;95.50;;;;;;5026772;28;20092;-72
2022/07/01 10:18:43;;;;;;;2.85;0.20;;;23.20;95.00;;;;;;5031033;28;20041;-73
2022/07/01 10:21:11;;;;;;;1.65;0.32;;;23.20;94.70;;;;;;5025822;28;20033;-72
2022/07/01 10:23:39;;;;;;;2.90;0.17;;;23.30;94.40;;;;;;5019706;28;20504;-74
2022/07/01 10:26:07;;;;;;;3.38;0.35;;;23.10;93.20;;;;;;5036667;28;20029;-73
2022/07/01 10:28:42;;;;;;;2.83;0.43;;;23.10;94.00;;;;;;5026959;28;20110;-74
2022/07/01 10:31:13;;;;;;;2.20;0.40;;;23.00;93.70;;;;;;5029541;28;20102;-71
2022/07/01 10:33:50;;;;;;;2.70;0.38;;;23.00;93.80;;;;;;5001653;28;20040;-70
2022/07/01 10:36:21;;;;;;;0.90;0.28;;;23.10;93.90;;;;;;5027786;28;20029;-71
2022/07/01 10:39:09;;;;;;;4.10;0.20;;;23.20;94.40;;;;;;5029808;28;20087;-71
2022/07/01 10:41:55;;;;;;;3.40;0.85;;;23.50;94.00;;;;;;5026847;28;20101;-73
2022/07/01 10:44:25;;;;;;;0.95;0.30;;;23.50;93.40;;;;;;5012559;28;20152;-70
2022/07/01 10:47:12;;;;;;;1.58;0.22;;;23.60;92.30;;;;;;5009678;28;20615;-73
2022/07/01 10:49:40;;;;;;;2.38;0.30;;;23.40;93.30;;;;;;5009362;28;20041;-73
2022/07/01 10:52:11;;;;;;;4.47;0.47;;;23.00;93.60;;;;;;5025634;28;20037;-71
2022/07/01 10:54:36;;;;;;;1.70;0.50;;;23.00;93.50;;;;;;5007120;28;20089;-73
2022/07/01 10:57:17;;;;;;;1.27;0.30;;;23.10;93.90;;;;;;5024407;28;20049;-72
2022/07/01 10:59:51;;;;;;;2.13;0.47;;;23.30;93.50;;;;;;5007383;28;20037;-73
2022/07/01 11:02:31;;;;;;;3.35;0.20;;;23.50;93.00;;;;;;5007974;28;20041;-72
2022/07/01 11:05:03;;;;;;;1.13;0.38;;;23.60;92.20;;;;;;5025972;28;20036;-73
2022/07/01 11:07:31;;;;;;;4.22;1.00;;;23.70;92.90;;;;;;5028372;28;20029;-73
2022/07/01 11:09:58;;;;;;;2.08;0.40;;;23.60;92.40;;;;;;5024030;28;20430;-73
2022/07/01 11:12:24;;;;;;;1.95;0.20;;;23.60;90.80;;;;;;5024917;28;20739;-71
2022/07/01 11:14:51;;;;;;;2.03;0.20;;;23.50;90.50;;;;;;5026782;28;20033;-73
2022/07/01 11:17:17;;;;;;;1.50;0.20;;;23.50;91.60;;;;;;5014436;28;20080;-71
2022/07/01 11:19:56;;;;;;;1.60;0.20;;;23.50;89.50;;;;;;5025703;28;20095;-73
2022/07/01 11:22:23;;;;;;;2.65;0.80;;;23.40;90.20;;;;;;5005097;28;20041;-72
2022/07/01 11:25:17;;;;;;;3.10;0.20;;;23.20;91.60;;;;;;5030277;28;20119;-73
2022/07/01 11:27:46;;;;;;;3.95;0.35;;;23.20;91.50;;;;;;5022191;28;20034;-71
2022/07/01 11:30:13;;;;;;;1.60;0.20;;;23.20;91.10;;;;;;5007112;28;20107;-71
2022/07/01 11:32:46;;;;;;;3.30;0.20;;;23.30;90.60;;;;;;5008060;28;20409;-72
2022/07/01 11:41:01;;;;;;;0.20;0.00;;;23.20;91.30;;;;;;5033493;28;20449;-69
2022/07/01 11:43:35;;;;;;;3.60;0.60;;;23.20;91.00;;;;;;5037270;28;20489;-71
2022/07/01 11:46:03;;;;;;;3.33;0.68;;;23.10;91.00;;;;;;5013643;28;20040;-71
2022/07/01 11:48:40;;;;;;;1.50;0.25;;;23.20;90.40;;;;;;5037078;28;20037;-72
2022/07/01 11:51:22;;;;;;;0.95;0.30;;;23.10;90.10;;;;;;5035037;28;20120;-71
2022/07/01 11:53:50;;;;;;;2.00;0.45;;;23.00;89.60;;;;;;5034290;28;20040;-69
2022/07/01 11:56:17;;;;;;;2.92;0.20;;;23.10;90.80;;;;;;5018945;28;20028;-71
2022/07/01 11:58:48;;;;;;;3.22;0.47;;;23.00;90.50;;;;;;5019569;28;20036;-72
2022/07/01 12:01:21;;;;;;;1.83;0.10;;;23.00;90.60;;;;;;5032999;28;20113;-72
2022/07/01 12:03:46;;;;;;;1.25;0.17;;;23.10;91.30;;;;;;5029976;28;20103;-72
2022/07/01 12:06:12;;;;;;;6.32;0.50;;;23.20;90.60;;;;;;5007401;28;20073;-73
2022/07/01 12:08:38;;;;;;;2.83;0.20;;;23.20;91.30;;;;;;5027705;28;20029;-73
2022/07/01 12:11:04;;;;;;;1.20;0.22;;;23.30;90.50;;;;;;5025574;28;20036;-71
2022/07/01 12:13:35;;;;;;;0.75;0.20;;;23.40;89.80;;;;;;5025084;28;20477;-73
2022/07/01 12:16:08;;;;;;;1.70;0.17;;;23.50;88.40;;;;;;5025382;28;20026;-71
2022/07/01 12:18:34;;;;;;;4.72;0.43;;;23.40;90.60;;;;;;5028589;28;20068;-72
2022/07/01 12:21:00;;;;;;;0.38;0.10;;;23.40;90.30;;;;;;5008919;28;20053;-73
2022/07/01 12:23:26;;;;;;;3.75;0.28;;;23.20;90.50;;;;;;5025037;28;20018;-68
2022/07/01 12:25:52;;;;;;;0.57;0.20;;;22.90;91.00;;;;;;5028270;28;20044;-69
2022/07/01 12:28:45;;;;;;;0.65;0.10;;;22.70;91.40;;;;;;5030599;28;20079;-68
2022/07/01 12:31:10;;;;;;;1.15;0.30;;;22.50;91.90;;;;;;5028412;28;20053;-68
2022/07/01 12:33:38;;;;;;;7.15;0.50;;;22.30;92.40;;;;;;5022212;28;20115;-67
2022/07/01 12:36:06;;;;;;;1.63;0.17;;;22.00;93.70;;;;;;5039625;28;20025;-72
2022/07/01 12:38:32;;;;;;;3.50;0.43;;;21.70;95.70;;;;;;5016693;28;20045;-74
2022/07/01 12:40:59;;;;;;;4.43;0.50;;;21.30;96.80;;;;;;5022022;28;20100;-72
2022/07/01 12:43:36;;;;;;;7.78;0.35;;;20.90;97.30;;;;;;5020185;28;20026;-73
2022/07/01 12:46:01;;;;;;;0.80;0.30;;;20.60;97.70;;;;;;5023368;28;20068;-72
2022/07/01 12:48:27;;;;;;;1.35;0.17;;;20.50;98.00;;;;;;5038770;28;20080;-71
2022/07/01 12:50:58;;;;;;;2.00;0.38;;;20.30;98.70;;;;;;5042743;28;20501;-72
2022/07/01 12:53:25;;;;;;;5.10;0.73;;;20.20;99.60;;;;;;5037831;28;20511;-71
2022/07/01 12:55:56;;;;;;;2.30;0.30;;;20.30;98.70;;;;;;5024689;28;20059;-73
2022/07/01 12:58:25;;;;;;;4.75;0.88;;;20.50;99.60;;;;;;5017226;28;20458;-70
2022/07/01 13:00:56;;;;;;;1.17;0.40;;;20.60;99.70;;;;;;5018786;28;20025;-73
2022/07/01 13:03:27;;;;;;;1.50;0.22;;;20.70;99.40;;;;;;5034280;28;20041;-70